Time;durP1;ratioP1;P1;durP2;ratioP2;P2;SDS_P1;SDS_P2;PMS_P1;PMS_P2;Temp;Humidity;BMP_temperature;BMP_pressure;BME280_temperature;BME280_humidity;BME280_pressure;Samples;Min_cycle;Max_cycle;Signal;HPM_P1;HPM_P2
2021/11/24 00:02:23;;;;;;;;;;;;;;;1.73;79.16;100940.05;1777844;80;20468;-65
2021/11/24 00:05:09;;;;;;;;;;;;;;;1.70;79.25;100937.11;1773470;80;20504;-63
2021/11/24 00:07:41;;;;;;;;;;;;;;;1.69;79.32;100936.75;1773475;81;20515;-65
2021/11/24 00:10:09;;;;;;;;;;;;;;;1.68;79.33;100943.62;1773588;81;20448;-64
2021/11/24 00:12:38;;;;;;;;;;;;;;;1.68;79.26;100942.28;1773441;81;20514;-62
2021/11/24 00:15:08;;;;;;;;;;;;;;;1.69;79.27;100943.99;1772672;80;20209;-64
2021/11/24 00:17:36;;;;;;;;;;;;;;;1.67;79.15;100941.91;1760588;81;20205;-63
2021/11/24 00:20:06;;;;;;;;;;;;;;;1.63;79.14;100945.85;1773263;80;20197;-62
2021/11/24 00:22:35;;;;;;;;;;;;;;;1.56;79.23;100940.95;1773126;81;20154;-63
2021/11/24 00:25:04;;;;;;;;;;;;;;;1.54;79.31;100951.03;1773266;81;20138;-64
2021/11/24 00:27:32;;;;;;;;;;;;;;;1.51;79.32;100949.94;1773406;81;20150;-64
2021/11/24 00:30:00;;;;;;;;;;;;;;;1.49;79.41;100946.50;1773142;81;20284;-63
2021/11/24 00:32:30;;;;;;;;;;;;;;;1.48;79.47;100942.58;1773364;80;20189;-64
2021/11/24 00:34:58;;;;;;;;;;;;;;;1.49;79.52;100949.69;1773464;80;20194;-64
2021/11/24 00:37:28;;;;;;;;;;;;;;;1.51;79.55;100950.42;1773154;80;20484;-64
2021/11/24 00:39:56;;;;;;;;;;;;;;;1.50;79.46;100944.16;1773188;80;20205;-64
2021/11/24 00:42:24;;;;;;;;;;;;;;;1.51;79.48;100951.28;1773311;81;20169;-64
2021/11/24 00:44:53;;;;;;;;;;;;;;;1.55;79.44;100956.80;1773479;80;20513;-63
2021/11/24 00:47:21;;;;;;;;;;;;;;;1.61;79.42;100953.22;1773121;81;20577;-64
2021/11/24 00:49:50;;;;;;;;;;;;;;;1.62;79.46;100956.29;1773414;80;20463;-64
2021/11/24 00:52:18;;;;;;;;;;;;;;;1.61;79.56;100951.87;1773369;81;20158;-63
2021/11/24 00:54:48;;;;;;;;;;;;;;;1.63;79.65;100952.11;1773145;80;20150;-65
2021/11/24 00:57:17;;;;;;;;;;;;;;;1.65;79.71;100959.59;1773358;80;20471;-65
2021/11/24 00:59:45;;;;;;;;;;;;;;;1.66;79.59;100964.02;1773957;80;20197;-64
2021/11/24 01:02:16;;;;;;;;;;;;;;;1.68;79.61;100958.48;1773413;80;20217;-64
2021/11/24 01:04:45;;;;;;;;;;;;;;;1.74;79.59;100962.89;1773177;81;20517;-63
2021/11/24 01:07:13;;;;;;;;;;;;;;;1.73;79.56;100958.47;1773488;79;20189;-65
2021/11/24 01:09:42;;;;;;;;;;;;;;;1.71;79.67;100962.28;1773662;80;20222;-64
2021/11/24 01:12:12;;;;;;;;;;;;;;;1.69;79.65;100958.36;1773211;80;20173;-64
2021/11/24 01:14:41;;;;;;;;;;;;;;;1.70;79.69;100964.61;1773064;80;20217;-63
2021/11/24 01:17:09;;;;;;;;;;;;;;;1.72;79.76;100965.34;1773331;80;20280;-66
2021/11/24 01:19:38;;;;;;;;;;;;;;;1.73;79.73;100965.71;1773056;80;20472;-63
2021/11/24 01:22:13;;;;;;;;;;;;;;;1.77;79.69;100969.88;1772722;81;20245;-65
2021/11/24 01:24:41;;;;;;;;;;;;;;;1.77;79.68;100968.03;1773541;81;20149;-66
2021/11/24 01:27:09;;;;;;;;;;;;;;;1.76;79.74;100971.72;1773477;81;20194;-64
2021/11/24 01:29:38;;;;;;;;;;;;;;;1.77;79.81;100970.73;1773258;81;20499;-63
2021/11/24 01:32:07;;;;;;;;;;;;;;;1.78;79.91;100971.59;1772927;81;20154;-63
2021/11/24 01:34:36;;;;;;;;;;;;;;;1.79;79.91;100976.87;1773309;81;20530;-65
2021/11/24 01:37:05;;;;;;;;;;;;;;;1.80;80.00;100976.37;1773588;80;20198;-64
2021/11/24 01:39:34;;;;;;;;;;;;;;;1.81;80.01;100971.34;1772714;81;20146;-64
2021/11/24 01:42:02;;;;;;;;;;;;;;;1.80;80.07;100973.18;1773252;81;20194;-65
2021/11/24 01:44:32;;;;;;;;;;;;;;;1.78;80.20;100967.55;1773211;80;20182;-65
2021/11/24 01:47:01;;;;;;;;;;;;;;;1.79;80.32;100966.55;1773481;80;20627;-64
2021/11/24 01:49:30;;;;;;;;;;;;;;;1.80;80.46;100969.63;1773174;81;20242;-64
2021/11/24 01:51:58;;;;;;;;;;;;;;;1.85;80.57;100974.15;1773515;80;20514;-64
2021/11/24 01:54:27;;;;;;;;;;;;;;;1.87;80.54;100978.93;1773270;80;20193;-64
2021/11/24 01:56:58;;;;;;;;;;;;;;;1.89;80.54;100974.26;1773330;81;20182;-66
2021/11/24 01:59:26;;;;;;;;;;;;;;;1.93;80.52;100972.16;1773587;81;20182;-67
2021/11/24 02:01:57;;;;;;;;;;;;;;;1.94;80.46;100976.09;1773310;80;20249;-64
2021/11/24 02:04:25;;;;;;;;;;;;;;;1.91;80.47;100977.69;1773084;80;20213;-64
2021/11/24 02:06:54;;;;;;;;;;;;;;;1.90;80.55;100984.08;1773489;81;20510;-65
2021/11/24 02:09:23;;;;;;;;;;;;;;;1.89;80.55;100975.12;1773249;79;20254;-65
2021/11/24 02:11:51;;;;;;;;;;;;;;;1.91;80.45;100974.98;1773134;79;20150;-64
2021/11/24 02:14:19;;;;;;;;;;;;;;;1.94;80.32;100979.28;1773072;81;20158;-63
2021/11/24 02:16:52;;;;;;;;;;;;;;;1.97;80.33;100979.91;1773336;80;20154;-63
2021/11/24 02:19:21;;;;;;;;;;;;;;;2.00;80.26;100976.95;1773087;80;20464;-63
2021/11/24 02:21:51;;;;;;;;;;;;;;;2.06;80.18;100986.39;1773378;81;20473;-66
2021/11/24 02:24:21;;;;;;;;;;;;;;;2.06;80.04;100989.95;1773376;81;20145;-63
2021/11/24 02:26:55;;;;;;;;;;;;;;;2.05;79.93;100981.48;1773572;80;20197;-64
2021/11/24 02:29:24;;;;;;;;;;;;;;;2.04;79.89;100983.81;1773061;81;20147;-63
2021/11/24 02:31:57;;;;;;;;;;;;;;;2.05;79.84;100984.67;1773151;81;20360;-64
2021/11/24 02:34:25;;;;;;;;;;;;;;;2.02;79.77;100983.58;1773236;81;20217;-65
2021/11/24 02:36:54;;;;;;;;;;;;;;;2.04;79.75;100989.22;1773243;81;20288;-64
2021/11/24 02:39:23;;;;;;;;;;;;;;;2.07;79.75;100983.56;1773066;81;20219;-64
2021/11/24 02:41:51;;;;;;;;;;;;;;;2.11;79.67;100981.45;1773319;79;20507;-66
2021/11/24 02:44:28;;;;;;;;;;;;;;;2.11;79.71;100993.63;1773504;81;20241;-65
2021/11/24 02:49:54;;;;;;;;;;;;;;;2.09;79.90;100995.10;1773304;81;20564;-66
2021/11/24 02:52:25;;;;;;;;;;;;;;;2.02;79.79;101000.66;1773442;80;20209;-64
2021/11/24 02:54:55;;;;;;;;;;;;;;;1.99;79.87;101000.91;1773255;80;20277;-64
2021/11/24 02:57:41;;;;;;;;;;;;;;;1.99;79.88;101000.91;1773096;81;20150;-64
2021/11/24 03:00:18;;;;;;;;;;;;;;;2.03;79.92;101004.22;1773159;81;20266;-63
2021/11/24 03:02:46;;;;;;;;;;;;;;;2.08;79.93;101006.05;1773425;81;20550;-63
2021/11/24 03:05:16;;;;;;;;;;;;;;;2.09;79.96;101004.56;1791239;80;20482;-65
2021/11/24 03:07:45;;;;;;;;;;;;;;;2.08;79.97;101012.30;1805089;78;20190;-64
2021/11/24 03:10:16;;;;;;;;;;;;;;;2.09;79.97;101018.08;1811608;79;20169;-63
2021/11/24 03:12:44;;;;;;;;;;;;;;;2.07;79.98;101011.94;1811680;79;20176;-64
2021/11/24 03:15:14;;;;;;;;;;;;;;;2.00;80.05;101013.44;1811642;79;20161;-64
2021/11/24 03:17:42;;;;;;;;;;;;;;;1.99;80.18;101025.23;1811338;79;20232;-64
2021/11/24 03:20:10;;;;;;;;;;;;;;;1.95;80.19;101017.02;1811732;79;20155;-65
2021/11/24 03:22:38;;;;;;;;;;;;;;;1.91;80.27;101015.52;1811840;79;20463;-65
2021/11/24 03:25:09;;;;;;;;;;;;;;;1.89;80.40;101021.05;1808854;79;20153;-67
2021/11/24 03:27:39;;;;;;;;;;;;;;;1.93;80.45;101020.30;1811594;78;20207;-64
2021/11/24 03:30:12;;;;;;;;;;;;;;;2.00;80.39;101025.59;1812017;79;20227;-63
2021/11/24 03:32:41;;;;;;;;;;;;;;;2.01;80.13;101019.20;1811965;79;20462;-63
2021/11/24 03:35:11;;;;;;;;;;;;;;;2.01;80.00;101030.02;1811333;78;20215;-63
2021/11/24 03:37:39;;;;;;;;;;;;;;;2.02;79.99;101022.77;1811874;78;20274;-64
2021/11/24 03:40:08;;;;;;;;;;;;;;;2.04;80.03;101021.66;1811796;78;20453;-63
2021/11/24 03:42:41;;;;;;;;;;;;;;;2.03;79.88;101025.84;1811710;78;20156;-64
2021/11/24 03:45:10;;;;;;;;;;;;;;;1.99;79.79;101029.28;1811841;79;20175;-64
2021/11/24 03:47:40;;;;;;;;;;;;;;;2.00;79.79;101033.70;1811595;79;20148;-63
2021/11/24 03:50:09;;;;;;;;;;;;;;;2.04;79.79;101043.28;1811618;79;20208;-63
2021/11/24 03:52:38;;;;;;;;;;;;;;;2.07;79.70;101034.91;1811904;79;20465;-63
2021/11/24 03:55:07;;;;;;;;;;;;;;;2.09;79.68;101038.34;1811918;79;20507;-64
2021/11/24 03:57:35;;;;;;;;;;;;;;;2.09;79.59;101028.89;1811783;79;20151;-64
2021/11/24 04:00:06;;;;;;;;;;;;;;;2.10;79.69;101035.16;1811776;78;20159;-65
2021/11/24 04:02:34;;;;;;;;;;;;;;;2.09;79.74;101034.30;1811869;79;20146;-63
2021/11/24 04:05:04;;;;;;;;;;;;;;;2.10;79.93;101042.77;1816902;78;20167;-65
2021/11/24 04:07:33;;;;;;;;;;;;;;;2.12;79.99;101043.50;1816824;79;20274;-63
2021/11/24 04:10:01;;;;;;;;;;;;;;;2.11;79.98;101047.19;1811909;79;20147;-62
2021/11/24 04:12:31;;;;;;;;;;;;;;;2.11;80.02;101045.84;1811725;78;20194;-63
2021/11/24 04:14:59;;;;;;;;;;;;;;;2.11;79.95;101048.54;1811747;78;20461;-63
2021/11/24 04:17:27;;;;;;;;;;;;;;;2.10;79.99;101054.07;1811438;78;20155;-64
2021/11/24 04:19:56;;;;;;;;;;;;;;;2.11;80.08;101053.09;1811930;79;20266;-64
2021/11/24 04:22:25;;;;;;;;;;;;;;;2.08;80.13;101060.09;1812027;79;20523;-62
2021/11/24 04:24:53;;;;;;;;;;;;;;;2.04;80.13;101062.20;1811828;79;20152;-64
2021/11/24 04:27:22;;;;;;;;;;;;;;;2.06;80.21;101071.03;1811654;79;20623;-64
2021/11/24 04:29:51;;;;;;;;;;;;;;;2.08;80.17;101062.31;1811759;79;20147;-63
2021/11/24 04:32:20;;;;;;;;;;;;;;;2.08;80.07;101058.25;1811919;78;20445;-64
2021/11/24 04:34:48;;;;;;;;;;;;;;;2.09;80.05;101062.67;1811794;79;20143;-63
2021/11/24 04:37:18;;;;;;;;;;;;;;;2.09;80.00;101062.67;1811516;79;20147;-64
2021/11/24 04:39:46;;;;;;;;;;;;;;;2.06;79.97;101054.82;1811731;79;20275;-64
2021/11/24 04:42:15;;;;;;;;;;;;;;;2.02;80.04;101052.50;1811956;79;20143;-65
2021/11/24 04:44:44;;;;;;;;;;;;;;;2.00;80.15;101061.23;1811736;79;20151;-65
2021/11/24 04:47:12;;;;;;;;;;;;;;;2.00;80.21;101063.44;1811750;78;20156;-66
2021/11/24 04:49:42;;;;;;;;;;;;;;;1.99;80.32;101057.66;1811805;79;20147;-63
2021/11/24 04:52:10;;;;;;;;;;;;;;;2.02;80.32;101056.06;1811631;78;20293;-63
2021/11/24 04:54:39;;;;;;;;;;;;;;;2.05;80.38;101061.70;1812076;79;20508;-64
2021/11/24 04:57:09;;;;;;;;;;;;;;;2.03;80.46;101053.72;1811649;79;20159;-63
2021/11/24 04:59:39;;;;;;;;;;;;;;;2.06;80.55;101073.74;1812044;79;20147;-64
2021/11/24 05:02:07;;;;;;;;;;;;;;;2.09;80.58;101065.38;1811580;79;20503;-64
2021/11/24 05:04:37;;;;;;;;;;;;;;;2.11;80.51;101070.16;1814327;77;20182;-65
2021/11/24 05:07:06;;;;;;;;;;;;;;;2.12;80.50;101069.17;1816241;79;20139;-64
2021/11/24 05:09:38;;;;;;;;;;;;;;;2.13;80.50;101065.98;1811603;78;20139;-63
2021/11/24 05:12:07;;;;;;;;;;;;;;;2.09;80.37;101072.62;1812017;79;20199;-64
2021/11/24 05:14:38;;;;;;;;;;;;;;;2.07;80.37;101080.01;1811974;78;20247;-63
2021/11/24 05:17:10;;;;;;;;;;;;;;;2.10;80.46;101076.55;1811716;79;20206;-64
2021/11/24 05:19:42;;;;;;;;;;;;;;;2.14;80.57;101084.78;1811927;78;20187;-65
2021/11/24 05:22:10;;;;;;;;;;;;;;;2.18;80.61;101088.95;1811809;79;20210;-65
2021/11/24 05:24:39;;;;;;;;;;;;;;;2.20;80.60;101078.86;1812187;79;20211;-64
2021/11/24 05:27:07;;;;;;;;;;;;;;;2.20;80.53;101093.73;1811600;79;20143;-65
2021/11/24 05:29:37;;;;;;;;;;;;;;;2.20;80.45;101095.08;1811655;79;20203;-65
2021/11/24 05:32:06;;;;;;;;;;;;;;;2.19;80.54;101081.69;1811884;78;20147;-64
2021/11/24 05:34:37;;;;;;;;;;;;;;;2.22;80.58;101080.95;1811450;79;20183;-65
2021/11/24 05:37:07;;;;;;;;;;;;;;;2.25;80.48;101096.55;1811532;78;20191;-64
2021/11/24 05:39:36;;;;;;;;;;;;;;;2.23;80.44;101092.13;1811518;79;20186;-64
2021/11/24 05:42:05;;;;;;;;;;;;;;;2.23;80.58;101100.23;1811745;78;20183;-65
2021/11/24 05:44:37;;;;;;;;;;;;;;;2.25;80.58;101108.22;1811742;79;20146;-64
2021/11/24 05:47:10;;;;;;;;;;;;;;;2.23;80.62;101104.78;1811418;79;20156;-63
2021/11/24 05:49:39;;;;;;;;;;;;;;;2.22;80.65;101103.06;1811932;79;20439;-64
2021/11/24 05:52:08;;;;;;;;;;;;;;;2.21;80.68;101105.41;1811764;79;20183;-64
2021/11/24 05:54:37;;;;;;;;;;;;;;;2.25;80.82;101107.36;1811562;78;20210;-63
2021/11/24 05:57:05;;;;;;;;;;;;;;;2.30;80.79;101111.89;1811694;79;20454;-64
2021/11/24 05:59:35;;;;;;;;;;;;;;;2.31;80.72;101110.41;1811943;79;20147;-63
2021/11/24 06:02:04;;;;;;;;;;;;;;;2.31;80.65;101110.41;1811954;79;20159;-64
2021/11/24 06:04:32;;;;;;;;;;;;;;;2.31;80.74;101109.06;1811894;78;20282;-63
2021/11/24 06:07:01;;;;;;;;;;;;;;;2.32;80.75;101112.13;1811617;78;20156;-66
2021/11/24 06:09:32;;;;;;;;;;;;;;;2.31;80.68;101110.41;1811414;79;20599;-64
2021/11/24 06:12:00;;;;;;;;;;;;;;;2.28;80.80;101113.87;1811536;79;20163;-64
2021/11/24 06:14:30;;;;;;;;;;;;;;;2.28;80.86;101112.52;1812042;78;20434;-64
2021/11/24 06:17:00;;;;;;;;;;;;;;;2.28;80.84;101118.78;1811614;79;20195;-64
2021/11/24 06:19:28;;;;;;;;;;;;;;;2.33;80.91;101123.81;1811502;78;21019;-63
2021/11/24 06:21:57;;;;;;;;;;;;;;;2.33;80.84;101115.70;1811653;78;20532;-64
2021/11/24 06:24:25;;;;;;;;;;;;;;;2.31;80.94;101120.38;1811585;79;20179;-64
2021/11/24 06:26:54;;;;;;;;;;;;;;;2.29;81.11;101125.91;1811859;78;20437;-64
2021/11/24 06:29:22;;;;;;;;;;;;;;;2.30;81.31;101132.17;1811628;78;20163;-67
2021/11/24 06:31:51;;;;;;;;;;;;;;;2.30;81.30;101133.53;1811106;78;20155;-65
2021/11/24 06:34:20;;;;;;;;;;;;;;;2.29;81.36;101122.34;1811956;78;20587;-65
2021/11/24 06:36:53;;;;;;;;;;;;;;;2.29;81.46;101135.37;1811061;78;20147;-65
2021/11/24 06:39:22;;;;;;;;;;;;;;;2.29;81.60;101132.67;1811696;78;20183;-65
2021/11/24 06:41:50;;;;;;;;;;;;;;;2.30;81.69;101136.23;1811576;79;20234;-67
2021/11/24 06:44:19;;;;;;;;;;;;;;;2.33;81.79;101129.22;1811701;79;20453;-66
2021/11/24 06:46:47;;;;;;;;;;;;;;;2.34;81.75;101132.28;1811542;79;20206;-67
2021/11/24 06:49:15;;;;;;;;;;;;;;;2.34;81.78;101134.50;1812124;78;20187;-66
2021/11/24 06:51:44;;;;;;;;;;;;;;;2.36;81.84;101136.58;1811680;79;20473;-66
2021/11/24 06:54:12;;;;;;;;;;;;;;;2.34;81.85;101135.84;1811585;79;20238;-67
2021/11/24 06:56:45;;;;;;;;;;;;;;;2.35;81.96;101131.30;1811565;78;20503;-67
2021/11/24 06:59:15;;;;;;;;;;;;;;;2.36;82.03;101139.29;1811389;79;20462;-68
2021/11/24 07:01:43;;;;;;;;;;;;;;;2.39;82.11;101139.53;1811899;79;20205;-66
2021/11/24 07:04:13;;;;;;;;;;;;;;;2.39;82.12;101137.68;1811549;79;20167;-65
2021/11/24 07:06:41;;;;;;;;;;;;;;;2.39;82.05;101139.03;1811514;78;20148;-66
2021/11/24 07:09:10;;;;;;;;;;;;;;;2.41;82.10;101138.41;1811726;78;20469;-67
2021/11/24 07:11:39;;;;;;;;;;;;;;;2.47;82.15;101149.22;1811769;79;20504;-66
2021/11/24 07:14:08;;;;;;;;;;;;;;;2.49;82.15;101145.89;1811379;79;20250;-66
2021/11/24 07:16:38;;;;;;;;;;;;;;;2.51;82.31;101150.19;1811643;79;20567;-68
2021/11/24 07:19:07;;;;;;;;;;;;;;;2.52;82.26;101137.03;1811638;79;20532;-65
2021/11/24 07:21:37;;;;;;;;;;;;;;;2.51;82.24;101146.13;1800677;79;20191;-66
2021/11/24 07:24:06;;;;;;;;;;;;;;;2.53;82.30;101139.23;1811412;78;20524;-65
2021/11/24 07:26:35;;;;;;;;;;;;;;;2.55;82.32;101142.67;1811583;79;20175;-65
2021/11/24 07:29:03;;;;;;;;;;;;;;;2.58;82.41;101141.56;1811779;79;20163;-66
2021/11/24 07:31:51;;;;;;;;;;;;;;;2.63;82.43;101142.92;1811705;79;20523;-65
2021/11/24 07:34:19;;;;;;;;;;;;;;;2.63;82.28;101145.63;1812032;79;20429;-67
2021/11/24 07:36:48;;;;;;;;;;;;;;;2.67;82.37;101144.88;1811797;79;20156;-68
2021/11/24 07:39:17;;;;;;;;;;;;;;;2.68;82.38;101150.16;1811584;79;20270;-65
2021/11/24 07:41:45;;;;;;;;;;;;;;;2.69;82.41;101160.00;1811682;78;20206;-66
2021/11/24 07:44:15;;;;;;;;;;;;;;;2.70;82.44;101155.44;1811756;79;20150;-65
2021/11/24 07:46:45;;;;;;;;;;;;;;;2.71;82.55;101161.22;1811936;79;20167;-66
2021/11/24 07:49:14;;;;;;;;;;;;;;;2.72;82.58;101157.03;1811637;79;20210;-64
2021/11/24 07:51:43;;;;;;;;;;;;;;;2.78;82.75;101156.52;1811664;78;20453;-65
2021/11/24 07:54:13;;;;;;;;;;;;;;;2.85;82.74;101149.59;1811914;79;20188;-67
2021/11/24 07:56:42;;;;;;;;;;;;;;;2.86;82.60;101154.02;1811629;79;20267;-66
2021/11/24 07:59:11;;;;;;;;;;;;;;;2.91;82.45;101154.12;1811728;79;20147;-66
2021/11/24 08:01:40;;;;;;;;;;;;;;;2.94;82.42;101156.57;1811671;79;20155;-65
2021/11/24 08:04:10;;;;;;;;;;;;;;;3.00;82.41;101158.76;1811872;78;20166;-66
2021/11/24 08:06:38;;;;;;;;;;;;;;;3.08;82.35;101153.55;1811702;79;20507;-65
2021/11/24 08:09:07;;;;;;;;;;;;;;;3.22;82.36;101159.13;1811819;78;20187;-64
2021/11/24 08:11:36;;;;;;;;;;;;;;;3.43;82.48;101160.88;1812039;79;20501;-65
2021/11/24 08:14:06;;;;;;;;;;;;;;;3.62;81.79;101157.42;1811558;79;20179;-66
2021/11/24 08:16:34;;;;;;;;;;;;;;;3.74;81.62;101163.61;1811837;79;20171;-64
2021/11/24 08:19:03;;;;;;;;;;;;;;;3.87;81.42;101168.81;1811785;79;20465;-64
2021/11/24 08:21:34;;;;;;;;;;;;;;;3.92;80.78;101162.02;1811517;79;20527;-64
2021/11/24 08:24:03;;;;;;;;;;;;;;;3.94;80.51;101157.81;1811864;78;20493;-64
2021/11/24 08:26:32;;;;;;;;;;;;;;;3.97;80.12;101165.67;1811841;79;20199;-65
2021/11/24 08:29:01;;;;;;;;;;;;;;;3.97;79.83;101167.03;1811955;78;20506;-65
2021/11/24 08:31:30;;;;;;;;;;;;;;;4.00;79.83;101164.05;1811866;78;20437;-65
2021/11/24 08:34:00;;;;;;;;;;;;;;;4.05;79.87;101163.14;1811813;78;20508;-64
2021/11/24 08:36:29;;;;;;;;;;;;;;;4.06;79.65;101148.09;1811722;79;20164;-66
2021/11/24 08:38:58;;;;;;;;;;;;;;;4.05;79.54;101147.73;1811759;79;20171;-65
2021/11/24 08:41:28;;;;;;;;;;;;;;;4.09;79.60;101153.23;1810065;78;20203;-64
2021/11/24 08:43:57;;;;;;;;;;;;;;;4.07;78.90;101138.95;1812117;79;20258;-63
2021/11/24 08:46:26;;;;;;;;;;;;;;;4.05;79.10;101139.59;1811847;79;20167;-63
2021/11/24 08:48:55;;;;;;;;;;;;;;;4.08;79.10;101146.59;1811627;79;20552;-64
2021/11/24 08:51:24;;;;;;;;;;;;;;;4.08;79.23;101135.75;1811714;79;20571;-65
2021/11/24 08:53:53;;;;;;;;;;;;;;;4.11;78.95;101144.96;1811949;78;20571;-63
2021/11/24 08:56:21;;;;;;;;;;;;;;;4.07;78.46;101140.31;1811672;78;20159;-63
2021/11/24 09:04:43;;;;;;;;;;;;;;;4.08;78.90;101135.25;1796061;79;20160;-62
2021/11/24 09:07:35;;;;;;;;;;;;;;;4.07;78.48;101142.17;1800484;79;20201;-64
2021/11/24 09:10:12;;;;;;;;;;;;;;;4.08;78.82;101142.03;1806643;78;20451;-63
2021/11/24 09:12:41;;;;;;;;;;;;;;;4.10;78.52;101145.96;1806530;78;20209;-63
2021/11/24 09:15:10;;;;;;;;;;;;;;;4.13;78.66;101153.81;1808002;79;20333;-62
2021/11/24 09:17:40;;;;;;;;;;;;;;;4.16;78.39;101152.69;1806593;77;20145;-63
2021/11/24 09:20:10;;;;;;;;;;;;;;;4.16;78.31;101153.55;1780348;79;20156;-62
2021/11/24 09:22:42;;;;;;;;;;;;;;;4.16;78.18;101149.48;1808694;79;20518;-61
2021/11/24 09:25:13;;;;;;;;;;;;;;;4.17;78.08;101157.11;1782871;79;20340;-62
2021/11/24 09:28:16;;;;;;;;;;;;;;;4.19;78.26;101155.13;1765110;79;20167;-64
2021/11/24 09:30:44;;;;;;;;;;;;;;;4.22;78.26;101160.27;1736389;81;20207;-63
2021/11/24 09:33:26;;;;;;;;;;;;;;;4.19;78.06;101156.48;1744742;80;20207;-58
2021/11/24 09:35:55;;;;;;;;;;;;;;;4.24;78.40;101150.14;1763782;80;20237;-61
2021/11/24 09:38:25;;;;;;;;;;;;;;;4.23;77.59;101153.34;1787893;79;20296;-62
2021/11/24 09:40:54;;;;;;;;;;;;;;;4.22;77.79;101151.63;1793550;79;20221;-63
2021/11/24 09:43:23;;;;;;;;;;;;;;;4.27;77.91;101148.50;1793510;80;20162;-62
2021/11/24 09:45:51;;;;;;;;;;;;;;;4.31;77.83;101148.09;1793680;80;20209;-62
2021/11/24 09:48:20;;;;;;;;;;;;;;;4.35;77.65;101151.38;1793836;80;20193;-60
2021/11/24 09:50:49;;;;;;;;;;;;;;;4.36;77.44;101149.03;1794229;79;20142;-63
2021/11/24 09:53:25;;;;;;;;;;;;;;;4.37;77.34;101156.17;1780669;80;20216;-64
2021/11/24 09:58:43;;;;;;;;;;;;;;;4.39;76.77;101151.45;1799313;79;20268;-63
2021/11/24 10:01:26;;;;;;;;;;;;;;;4.37;76.47;101146.17;1799198;80;20233;-64
2021/11/24 10:04:00;;;;;;;;;;;;;;;4.41;76.72;101152.18;1679895;85;20241;-63
2021/11/24 10:06:32;;;;;;;;;;;;;;;4.41;75.97;101146.75;1684504;84;20187;-64
2021/11/24 10:09:02;;;;;;;;;;;;;;;4.38;75.94;101147.03;1671363;85;20161;-64
2021/11/24 10:11:32;;;;;;;;;;;;;;;4.39;76.03;101152.81;1616255;89;20201;-64
2021/11/24 10:14:01;;;;;;;;;;;;;;;4.41;75.93;101147.61;1655001;87;20181;-65
2021/11/24 10:16:35;;;;;;;;;;;;;;;4.41;74.94;101149.47;1628766;88;20239;-63
2021/11/24 10:19:06;;;;;;;;;;;;;;;4.37;74.60;101139.39;1628406;88;20223;-66
2021/11/24 10:21:55;;;;;;;;;;;;;;;4.37;74.91;101137.17;1628610;88;20187;-64
2021/11/24 10:24:31;;;;;;;;;;;;;;;4.37;75.02;101133.11;1628943;88;20163;-64
2021/11/24 10:27:02;;;;;;;;;;;;;;;4.37;75.39;101139.89;1618716;88;20465;-63
2021/11/24 10:29:40;;;;;;;;;;;;;;;4.37;75.50;101132.61;1609793;87;20588;-64
2021/11/24 10:32:09;;;;;;;;;;;;;;;4.38;75.27;101133.47;1610342;89;20277;-63
2021/11/24 10:34:42;;;;;;;;;;;;;;;4.37;75.05;101137.17;1610675;89;20489;-64
2021/11/24 10:40:11;;;;;;;;;;;;;;;4.42;75.26;101137.61;1610931;89;20531;-65
2021/11/24 10:42:58;;;;;;;;;;;;;;;4.46;75.48;101137.20;1720867;83;20227;-64
2021/11/24 10:45:31;;;;;;;;;;;;;;;4.53;75.75;101137.48;1720927;83;20476;-62
2021/11/24 10:48:25;;;;;;;;;;;;;;;4.57;75.55;101129.45;1721011;83;20186;-63
2021/11/24 10:51:30;;;;;;;;;;;;;;;4.58;75.19;101131.67;1720670;83;20570;-63
2021/11/24 10:57:10;;;;;;;;;;;;;;;4.60;74.86;101135.95;1742423;82;20196;-63
2021/11/24 11:11:08;;;;;;;;;;;;;;;4.60;74.71;101121.03;1759832;81;20236;-63
2021/11/24 11:13:36;;;;;;;;;;;;;;;4.66;74.81;101119.11;1747759;81;20242;-65
2021/11/24 11:16:05;;;;;;;;;;;;;;;4.71;74.89;101113.25;1743522;82;20194;-65
2021/11/24 11:21:30;;;;;;;;;;;;;;;4.77;74.86;101114.89;1743840;82;20266;-65
2021/11/24 11:24:00;;;;;;;;;;;;;;;4.82;74.75;101114.47;1697645;82;20229;-64
2021/11/24 11:26:31;;;;;;;;;;;;;;;4.82;73.96;101114.97;1722344;82;20460;-64
2021/11/24 11:29:00;;;;;;;;;;;;;;;4.75;73.58;101114.68;1729813;82;20168;-64
2021/11/24 11:31:31;;;;;;;;;;;;;;;4.71;73.68;101110.03;1713953;84;20144;-64
2021/11/24 11:34:02;;;;;;;;;;;;;;;4.70;73.72;101110.18;1713515;84;20188;-63
2021/11/24 11:42:19;;;;;;;;;;;;;;;4.82;73.97;101098.17;1714165;84;20189;-64
2021/11/24 11:44:57;;;;;;;;;;;;;;;4.83;73.88;101093.61;1713354;83;20212;-65
2021/11/24 11:50:44;;;;;;;;;;;;;;;4.86;73.59;101094.67;1713517;84;20141;-63
2021/11/24 11:53:21;;;;;;;;;;;;;;;4.86;73.34;101098.74;1713848;84;20351;-63
2021/11/24 11:56:11;;;;;;;;;;;;;;;4.87;73.36;101099.95;1713740;84;20161;-66
2021/11/24 12:01:54;;;;;;;;;;;;;;;4.83;72.69;101091.75;1713941;84;20156;-62
2021/11/24 12:04:47;;;;;;;;;;;;;;;4.83;72.85;101089.53;1713593;84;20196;-63
2021/11/24 12:07:23;;;;;;;;;;;;;;;4.84;72.70;101092.10;1713603;84;20180;-64
2021/11/24 12:09:54;;;;;;;;;;;;;;;4.86;72.62;101091.95;1658853;86;20482;-63
2021/11/24 12:12:34;;;;;;;;;;;;;;;4.89;72.73;101094.39;1669851;85;20209;-63
2021/11/24 12:15:18;;;;;;;;;;;;;;;4.93;72.87;101087.66;1686854;85;20468;-63
2021/11/24 12:20:51;;;;;;;;;;;;;;;4.99;73.25;101091.16;1686812;85;20496;-63
2021/11/24 12:23:24;;;;;;;;;;;;;;;5.01;72.92;101089.16;1662224;85;20453;-63
2021/11/24 12:25:52;;;;;;;;;;;;;;;4.98;72.53;101089.45;1686919;85;20221;-65
2021/11/24 12:28:23;;;;;;;;;;;;;;;4.97;72.47;101089.09;1792845;79;20193;-64
2021/11/24 12:33:52;;;;;;;;;;;;;;;4.97;72.57;101091.80;1816639;79;20172;-65
2021/11/24 12:36:22;;;;;;;;;;;;;;;4.98;72.40;101085.38;1816863;78;20493;-64
2021/11/24 12:38:53;;;;;;;;;;;;;;;4.96;72.05;101086.02;1816766;79;20208;-64
2021/11/24 12:44:17;;;;;;;;;;;;;;;4.95;71.83;101087.02;1816852;79;20180;-64
2021/11/24 12:49:40;;;;;;;;;;;;;;;4.90;72.27;101085.23;1816974;79;20447;-65
2021/11/24 12:52:08;;;;;;;;;;;;;;;4.92;72.23;101084.09;1817006;79;20233;-64
2021/11/24 12:54:39;;;;;;;;;;;;;;;4.92;72.40;101078.66;1816914;79;20309;-64
2021/11/24 12:57:15;;;;;;;;;;;;;;;4.91;72.23;101079.66;1816573;79;20200;-63
2021/11/24 13:02:39;;;;;;;;;;;;;;;4.90;72.12;101085.23;1816862;79;20221;-64
2021/11/24 13:08:03;;;;;;;;;;;;;;;4.91;72.34;101076.95;1820441;79;20195;-64
2021/11/24 13:10:32;;;;;;;;;;;;;;;4.92;72.70;101084.09;1822711;79;20200;-63
2021/11/24 13:13:10;;;;;;;;;;;;;;;4.95;72.73;101087.02;1814445;79;20169;-63
2021/11/24 13:15:39;;;;;;;;;;;;;;;4.94;72.41;101082.59;1811565;79;20169;-64
2021/11/24 13:18:08;;;;;;;;;;;;;;;4.94;72.34;101083.45;1811235;79;20597;-64
2021/11/24 13:20:38;;;;;;;;;;;;;;;4.93;72.23;101089.02;1811490;79;20157;-64
2021/11/24 13:23:07;;;;;;;;;;;;;;;4.91;72.09;101083.73;1811571;79;20470;-64
2021/11/24 13:25:36;;;;;;;;;;;;;;;4.89;72.21;101080.31;1811365;79;20463;-60
2021/11/24 13:28:13;;;;;;;;;;;;;;;4.89;72.30;101083.52;1779727;80;20461;-64
2021/11/24 13:30:45;;;;;;;;;;;;;;;4.88;72.21;101088.09;1779492;80;20199;-64
2021/11/24 13:33:24;;;;;;;;;;;;;;;4.89;72.76;101087.09;1779549;80;20160;-65
2021/11/24 13:36:12;;;;;;;;;;;;;;;4.90;72.14;101092.02;1779943;81;20159;-63
2021/11/24 13:38:43;;;;;;;;;;;;;;;4.88;71.75;101095.39;1779940;81;20211;-64
2021/11/24 13:41:24;;;;;;;;;;;;;;;4.84;71.56;101092.10;1779488;81;20175;-63
2021/11/24 13:44:00;;;;;;;;;;;;;;;4.85;71.56;101095.67;1779671;81;20156;-63
2021/11/24 13:46:32;;;;;;;;;;;;;;;4.84;71.40;101093.45;1777698;80;20265;-64
2021/11/24 13:49:10;;;;;;;;;;;;;;;4.83;71.47;101086.81;1779736;81;20143;-64
2021/11/24 13:51:40;;;;;;;;;;;;;;;4.84;71.51;101089.89;1779587;81;20155;-66
2021/11/24 13:54:13;;;;;;;;;;;;;;;4.86;71.45;101094.67;1778961;80;20175;-65
2021/11/24 13:56:49;;;;;;;;;;;;;;;4.89;71.85;101080.81;1779561;81;20239;-64
2021/11/24 14:02:25;;;;;;;;;;;;;;;4.86;71.51;101077.88;1779750;81;20661;-65
2021/11/24 14:07:51;;;;;;;;;;;;;;;4.86;71.42;101083.81;1779570;81;20143;-64
2021/11/24 14:10:22;;;;;;;;;;;;;;;4.86;71.27;101087.88;1779516;80;20211;-63
2021/11/24 14:12:51;;;;;;;;;;;;;;;4.86;71.22;101087.38;1792807;79;20221;-64
2021/11/24 14:15:28;;;;;;;;;;;;;;;4.87;70.99;101080.09;1800830;80;20467;-64